sensor_id;sensor_type;location;lat;lon;timestamp;P1;durP1;ratioP1;P2;durP2;ratioP2
47483;SDS011;54076;50.322;18.650;2022-07-03T00:03:06;8.90;;;5.60;;
47483;SDS011;54076;50.322;18.650;2022-07-03T00:08:07;10.90;;;5.30;;
47483;SDS011;54076;50.322;18.650;2022-07-03T00:13:08;9.10;;;5.90;;
47483;SDS011;54076;50.322;18.650;2022-07-03T00:18:09;9.20;;;5.60;;
47483;SDS011;54076;50.322;18.650;2022-07-03T00:23:13;9.70;;;5.40;;
47483;SDS011;54076;50.322;18.650;2022-07-03T00:28:19;11.60;;;5.90;;
47483;SDS011;54076;50.322;18.650;2022-07-03T00:33:20;10.20;;;5.20;;
47483;SDS011;54076;50.322;18.650;2022-07-03T00:38:23;9.30;;;5.10;;
47483;SDS011;54076;50.322;18.650;2022-07-03T00:43:25;10.80;;;5.80;;
47483;SDS011;54076;50.322;18.650;2022-07-03T00:48:27;11.40;;;5.40;;
47483;SDS011;54076;50.322;18.650;2022-07-03T00:53:29;8.90;;;5.30;;
47483;SDS011;54076;50.322;18.650;2022-07-03T00:58:33;12.60;;;5.70;;
47483;SDS011;54076;50.322;18.650;2022-07-03T01:03:35;10.30;;;5.80;;
47483;SDS011;54076;50.322;18.650;2022-07-03T01:08:49;10.10;;;5.80;;
47483;SDS011;54076;50.322;18.650;2022-07-03T01:15:05;13.30;;;6.20;;
47483;SDS011;54076;50.322;18.650;2022-07-03T01:20:01;10.00;;;6.20;;
47483;SDS011;54076;50.322;18.650;2022-07-03T01:30:44;10.20;;;5.90;;
47483;SDS011;54076;50.322;18.650;2022-07-03T01:41:04;12.20;;;5.90;;
47483;SDS011;54076;50.322;18.650;2022-07-03T01:46:07;9.90;;;6.10;;
47483;SDS011;54076;50.322;18.650;2022-07-03T01:51:12;10.40;;;6.10;;
47483;SDS011;54076;50.322;18.650;2022-07-03T01:56:15;12.20;;;6.30;;
47483;SDS011;54076;50.322;18.650;2022-07-03T02:01:22;12.00;;;6.80;;
47483;SDS011;54076;50.322;18.650;2022-07-03T02:12:05;11.00;;;6.50;;
47483;SDS011;54076;50.322;18.650;2022-07-03T02:17:17;13.10;;;6.90;;
47483;SDS011;54076;50.322;18.650;2022-07-03T02:22:35;11.70;;;6.90;;
47483;SDS011;54076;50.322;18.650;2022-07-03T02:27:42;12.70;;;6.90;;
47483;SDS011;54076;50.322;18.650;2022-07-03T02:32:48;11.70;;;6.60;;
47483;SDS011;54076;50.322;18.650;2022-07-03T02:48:42;10.50;;;6.10;;
47483;SDS011;54076;50.322;18.650;2022-07-03T02:54:11;9.60;;;5.80;;
47483;SDS011;54076;50.322;18.650;2022-07-03T03:04:41;9.80;;;5.80;;
47483;SDS011;54076;50.322;18.650;2022-07-03T03:09:47;10.60;;;6.70;;
47483;SDS011;54076;50.322;18.650;2022-07-03T03:14:48;10.70;;;6.60;;
47483;SDS011;54076;50.322;18.650;2022-07-03T03:19:59;12.50;;;6.70;;
47483;SDS011;54076;50.322;18.650;2022-07-03T03:25:03;10.30;;;6.20;;
47483;SDS011;54076;50.322;18.650;2022-07-03T03:30:05;10.60;;;5.80;;
47483;SDS011;54076;50.322;18.650;2022-07-03T03:35:07;12.00;;;5.40;;
47483;SDS011;54076;50.322;18.650;2022-07-03T03:40:10;12.00;;;5.30;;
47483;SDS011;54076;50.322;18.650;2022-07-03T03:45:12;9.10;;;5.70;;
47483;SDS011;54076;50.322;18.650;2022-07-03T03:50:13;9.60;;;5.70;;
47483;SDS011;54076;50.322;18.650;2022-07-03T03:55:14;9.60;;;6.10;;
47483;SDS011;54076;50.322;18.650;2022-07-03T04:00:16;11.00;;;6.20;;
47483;SDS011;54076;50.322;18.650;2022-07-03T04:05:17;9.30;;;5.80;;
47483;SDS011;54076;50.322;18.650;2022-07-03T04:10:18;12.20;;;6.70;;
47483;SDS011;54076;50.322;18.650;2022-07-03T04:15:19;9.10;;;6.10;;
47483;SDS011;54076;50.322;18.650;2022-07-03T04:20:20;10.10;;;6.40;;
47483;SDS011;54076;50.322;18.650;2022-07-03T04:25:21;9.70;;;5.80;;
47483;SDS011;54076;50.322;18.650;2022-07-03T04:30:22;9.80;;;5.10;;
47483;SDS011;54076;50.322;18.650;2022-07-03T04:35:24;8.90;;;5.40;;
47483;SDS011;54076;50.322;18.650;2022-07-03T04:40:25;10.90;;;5.30;;
47483;SDS011;54076;50.322;18.650;2022-07-03T04:45:26;9.00;;;4.50;;
47483;SDS011;54076;50.322;18.650;2022-07-03T04:50:27;8.80;;;4.90;;
47483;SDS011;54076;50.322;18.650;2022-07-03T04:55:28;10.60;;;5.00;;
47483;SDS011;54076;50.322;18.650;2022-07-03T05:00:29;8.40;;;4.80;;
47483;SDS011;54076;50.322;18.650;2022-07-03T05:05:30;8.30;;;5.30;;
47483;SDS011;54076;50.322;18.650;2022-07-03T05:10:31;11.20;;;6.30;;
47483;SDS011;54076;50.322;18.650;2022-07-03T05:15:32;9.50;;;6.40;;
47483;SDS011;54076;50.322;18.650;2022-07-03T05:20:33;10.70;;;6.50;;
47483;SDS011;54076;50.322;18.650;2022-07-03T05:25:34;13.40;;;6.60;;
47483;SDS011;54076;50.322;18.650;2022-07-03T05:30:35;11.30;;;6.40;;
47483;SDS011;54076;50.322;18.650;2022-07-03T05:35:36;12.40;;;6.50;;
47483;SDS011;54076;50.322;18.650;2022-07-03T05:40:37;14.40;;;7.60;;
47483;SDS011;54076;50.322;18.650;2022-07-03T05:45:38;15.80;;;8.00;;
47483;SDS011;54076;50.322;18.650;2022-07-03T05:50:39;13.10;;;7.30;;
47483;SDS011;54076;50.322;18.650;2022-07-03T05:55:40;12.30;;;7.00;;
47483;SDS011;54076;50.322;18.650;2022-07-03T06:00:42;11.40;;;6.90;;
47483;SDS011;54076;50.322;18.650;2022-07-03T06:05:43;12.70;;;7.00;;
47483;SDS011;54076;50.322;18.650;2022-07-03T06:10:44;11.80;;;6.20;;
47483;SDS011;54076;50.322;18.650;2022-07-03T06:15:45;9.70;;;6.10;;
47483;SDS011;54076;50.322;18.650;2022-07-03T06:20:47;10.50;;;5.70;;
47483;SDS011;54076;50.322;18.650;2022-07-03T06:25:48;11.20;;;6.30;;
47483;SDS011;54076;50.322;18.650;2022-07-03T06:30:49;11.30;;;6.40;;
47483;SDS011;54076;50.322;18.650;2022-07-03T06:35:50;10.80;;;5.90;;
47483;SDS011;54076;50.322;18.650;2022-07-03T06:40:51;9.10;;;5.80;;
47483;SDS011;54076;50.322;18.650;2022-07-03T06:45:52;11.30;;;5.80;;
47483;SDS011;54076;50.322;18.650;2022-07-03T06:50:53;9.30;;;5.90;;
47483;SDS011;54076;50.322;18.650;2022-07-03T06:55:54;10.80;;;6.20;;
47483;SDS011;54076;50.322;18.650;2022-07-03T07:00:55;10.30;;;6.10;;
47483;SDS011;54076;50.322;18.650;2022-07-03T07:05:56;11.00;;;6.40;;
47483;SDS011;54076;50.322;18.650;2022-07-03T07:10:57;10.90;;;6.10;;
47483;SDS011;54076;50.322;18.650;2022-07-03T07:15:59;11.20;;;6.80;;
47483;SDS011;54076;50.322;18.650;2022-07-03T07:21:00;11.10;;;6.50;;
47483;SDS011;54076;50.322;18.650;2022-07-03T07:26:02;11.10;;;6.00;;
47483;SDS011;54076;50.322;18.650;2022-07-03T07:31:04;10.70;;;6.00;;
47483;SDS011;54076;50.322;18.650;2022-07-03T07:36:05;11.00;;;6.80;;
47483;SDS011;54076;50.322;18.650;2022-07-03T07:41:06;9.30;;;5.70;;
47483;SDS011;54076;50.322;18.650;2022-07-03T07:46:07;11.10;;;6.20;;
47483;SDS011;54076;50.322;18.650;2022-07-03T07:51:08;10.80;;;6.30;;
47483;SDS011;54076;50.322;18.650;2022-07-03T07:56:08;11.50;;;6.10;;
47483;SDS011;54076;50.322;18.650;2022-07-03T08:01:09;12.00;;;6.90;;
47483;SDS011;54076;50.322;18.650;2022-07-03T08:06:30;11.30;;;6.70;;
47483;SDS011;54076;50.322;18.650;2022-07-03T08:11:31;8.60;;;5.70;;
47483;SDS011;54076;50.322;18.650;2022-07-03T08:16:32;10.60;;;6.90;;
47483;SDS011;54076;50.322;18.650;2022-07-03T08:21:33;11.80;;;6.60;;
47483;SDS011;54076;50.322;18.650;2022-07-03T08:26:34;12.60;;;6.50;;
47483;SDS011;54076;50.322;18.650;2022-07-03T08:31:35;10.40;;;5.90;;
47483;SDS011;54076;50.322;18.650;2022-07-03T08:36:36;9.50;;;5.80;;
47483;SDS011;54076;50.322;18.650;2022-07-03T08:41:39;11.00;;;6.50;;
47483;SDS011;54076;50.322;18.650;2022-07-03T08:46:41;11.20;;;7.10;;
47483;SDS011;54076;50.322;18.650;2022-07-03T08:51:43;11.30;;;6.80;;
47483;SDS011;54076;50.322;18.650;2022-07-03T08:56:46;11.60;;;6.20;;
47483;SDS011;54076;50.322;18.650;2022-07-03T09:01:48;11.20;;;5.90;;
47483;SDS011;54076;50.322;18.650;2022-07-03T09:06:49;9.60;;;5.90;;
47483;SDS011;54076;50.322;18.650;2022-07-03T09:11:51;12.20;;;6.70;;
47483;SDS011;54076;50.322;18.650;2022-07-03T09:16:52;10.40;;;6.40;;
47483;SDS011;54076;50.322;18.650;2022-07-03T09:21:53;9.10;;;6.40;;
47483;SDS011;54076;50.322;18.650;2022-07-03T09:26:54;11.80;;;5.90;;
47483;SDS011;54076;50.322;18.650;2022-07-03T09:31:55;9.20;;;6.20;;
47483;SDS011;54076;50.322;18.650;2022-07-03T09:36:56;9.40;;;5.80;;
47483;SDS011;54076;50.322;18.650;2022-07-03T09:42:00;9.40;;;6.00;;
47483;SDS011;54076;50.322;18.650;2022-07-03T09:47:23;9.60;;;5.80;;
47483;SDS011;54076;50.322;18.650;2022-07-03T09:52:40;9.30;;;5.90;;
47483;SDS011;54076;50.322;18.650;2022-07-03T10:02:52;9.40;;;6.10;;
47483;SDS011;54076;50.322;18.650;2022-07-03T10:08:03;8.60;;;5.40;;
47483;SDS011;54076;50.322;18.650;2022-07-03T10:13:12;7.90;;;5.40;;
47483;SDS011;54076;50.322;18.650;2022-07-03T10:18:14;9.70;;;5.60;;
47483;SDS011;54076;50.322;18.650;2022-07-03T10:23:21;7.80;;;5.10;;
47483;SDS011;54076;50.322;18.650;2022-07-03T10:28:22;9.00;;;5.30;;
47483;SDS011;54076;50.322;18.650;2022-07-03T10:33:23;8.70;;;5.70;;
47483;SDS011;54076;50.322;18.650;2022-07-03T10:38:41;8.00;;;5.10;;
47483;SDS011;54076;50.322;18.650;2022-07-03T10:43:51;7.30;;;5.10;;
47483;SDS011;54076;50.322;18.650;2022-07-03T10:49:12;9.50;;;5.30;;
47483;SDS011;54076;50.322;18.650;2022-07-03T10:54:16;9.90;;;5.60;;
47483;SDS011;54076;50.322;18.650;2022-07-03T11:31:19;10.40;;;5.40;;
47483;SDS011;54076;50.322;18.650;2022-07-03T11:36:23;8.70;;;5.30;;
47483;SDS011;54076;50.322;18.650;2022-07-03T11:46:39;7.40;;;5.30;;
47483;SDS011;54076;50.322;18.650;2022-07-03T11:51:54;7.80;;;5.20;;
47483;SDS011;54076;50.322;18.650;2022-07-03T11:57:03;8.40;;;5.40;;
47483;SDS011;54076;50.322;18.650;2022-07-03T12:02:05;7.80;;;5.70;;
47483;SDS011;54076;50.322;18.650;2022-07-03T12:07:06;7.60;;;5.30;;
47483;SDS011;54076;50.322;18.650;2022-07-03T12:12:10;7.90;;;5.00;;
47483;SDS011;54076;50.322;18.650;2022-07-03T12:27:34;8.90;;;5.30;;
47483;SDS011;54076;50.322;18.650;2022-07-03T12:32:38;7.10;;;5.10;;
47483;SDS011;54076;50.322;18.650;2022-07-03T12:37:41;8.50;;;5.30;;
47483;SDS011;54076;50.322;18.650;2022-07-03T12:42:46;7.40;;;5.40;;
47483;SDS011;54076;50.322;18.650;2022-07-03T12:53:03;9.00;;;5.50;;
47483;SDS011;54076;50.322;18.650;2022-07-03T12:58:16;7.40;;;5.20;;
47483;SDS011;54076;50.322;18.650;2022-07-03T13:03:41;8.50;;;5.40;;
47483;SDS011;54076;50.322;18.650;2022-07-03T13:08:56;7.20;;;5.10;;
47483;SDS011;54076;50.322;18.650;2022-07-03T13:14:03;7.30;;;5.40;;
47483;SDS011;54076;50.322;18.650;2022-07-03T13:19:19;7.20;;;5.20;;
47483;SDS011;54076;50.322;18.650;2022-07-03T13:24:27;7.80;;;5.10;;
47483;SDS011;54076;50.322;18.650;2022-07-03T13:29:28;8.10;;;5.00;;
47483;SDS011;54076;50.322;18.650;2022-07-03T13:34:30;7.50;;;4.80;;
47483;SDS011;54076;50.322;18.650;2022-07-03T13:39:30;7.70;;;5.30;;
47483;SDS011;54076;50.322;18.650;2022-07-03T13:44:31;7.50;;;5.00;;
47483;SDS011;54076;50.322;18.650;2022-07-03T13:49:32;6.40;;;4.90;;
47483;SDS011;54076;50.322;18.650;2022-07-03T13:54:33;8.60;;;5.30;;
47483;SDS011;54076;50.322;18.650;2022-07-03T13:59:35;6.90;;;5.10;;
47483;SDS011;54076;50.322;18.650;2022-07-03T14:04:36;8.80;;;4.70;;
47483;SDS011;54076;50.322;18.650;2022-07-03T14:09:37;6.80;;;4.90;;
47483;SDS011;54076;50.322;18.650;2022-07-03T14:14:38;7.30;;;4.60;;
47483;SDS011;54076;50.322;18.650;2022-07-03T14:19:39;7.10;;;4.70;;
47483;SDS011;54076;50.322;18.650;2022-07-03T14:24:40;7.10;;;5.50;;
47483;SDS011;54076;50.322;18.650;2022-07-03T14:29:41;7.50;;;5.10;;
47483;SDS011;54076;50.322;18.650;2022-07-03T14:35:01;8.40;;;4.90;;
47483;SDS011;54076;50.322;18.650;2022-07-03T14:40:03;7.00;;;4.70;;
47483;SDS011;54076;50.322;18.650;2022-07-03T14:45:05;8.60;;;4.80;;
47483;SDS011;54076;50.322;18.650;2022-07-03T14:50:07;6.80;;;5.20;;
47483;SDS011;54076;50.322;18.650;2022-07-03T14:55:09;7.40;;;4.90;;
47483;SDS011;54076;50.322;18.650;2022-07-03T15:00:12;7.60;;;5.00;;
47483;SDS011;54076;50.322;18.650;2022-07-03T15:05:15;10.40;;;5.40;;
47483;SDS011;54076;50.322;18.650;2022-07-03T15:10:17;7.40;;;5.50;;
47483;SDS011;54076;50.322;18.650;2022-07-03T15:15:20;8.50;;;5.10;;
47483;SDS011;54076;50.322;18.650;2022-07-03T15:20:23;8.10;;;5.50;;
47483;SDS011;54076;50.322;18.650;2022-07-03T15:25:31;8.50;;;5.40;;
47483;SDS011;54076;50.322;18.650;2022-07-03T15:30:33;7.70;;;5.10;;
47483;SDS011;54076;50.322;18.650;2022-07-03T15:35:34;9.90;;;5.10;;
47483;SDS011;54076;50.322;18.650;2022-07-03T15:40:47;8.00;;;5.10;;
47483;SDS011;54076;50.322;18.650;2022-07-03T15:45:59;16.30;;;5.20;;
47483;SDS011;54076;50.322;18.650;2022-07-03T15:51:24;6.40;;;4.70;;
47483;SDS011;54076;50.322;18.650;2022-07-03T15:56:35;9.80;;;5.00;;
47483;SDS011;54076;50.322;18.650;2022-07-03T16:01:45;6.90;;;4.70;;
47483;SDS011;54076;50.322;18.650;2022-07-03T16:07:11;6.60;;;4.70;;
47483;SDS011;54076;50.322;18.650;2022-07-03T16:12:13;6.60;;;4.30;;
47483;SDS011;54076;50.322;18.650;2022-07-03T16:17:21;5.80;;;4.20;;
47483;SDS011;54076;50.322;18.650;2022-07-03T16:22:24;6.70;;;4.90;;
47483;SDS011;54076;50.322;18.650;2022-07-03T16:27:28;6.20;;;4.30;;
47483;SDS011;54076;50.322;18.650;2022-07-03T16:32:40;6.70;;;4.70;;
47483;SDS011;54076;50.322;18.650;2022-07-03T16:37:44;7.10;;;5.10;;
47483;SDS011;54076;50.322;18.650;2022-07-03T16:42:47;6.40;;;4.70;;
47483;SDS011;54076;50.322;18.650;2022-07-03T16:47:50;6.50;;;4.90;;
47483;SDS011;54076;50.322;18.650;2022-07-03T16:52:53;6.10;;;4.40;;
47483;SDS011;54076;50.322;18.650;2022-07-03T16:57:56;6.70;;;4.40;;
47483;SDS011;54076;50.322;18.650;2022-07-03T17:02:57;7.20;;;4.30;;
47483;SDS011;54076;50.322;18.650;2022-07-03T17:07:58;6.20;;;4.70;;
47483;SDS011;54076;50.322;18.650;2022-07-03T17:13:00;6.10;;;4.80;;
47483;SDS011;54076;50.322;18.650;2022-07-03T17:18:03;7.20;;;4.50;;
47483;SDS011;54076;50.322;18.650;2022-07-03T17:23:14;6.80;;;4.50;;
47483;SDS011;54076;50.322;18.650;2022-07-03T17:28:23;6.50;;;4.30;;
47483;SDS011;54076;50.322;18.650;2022-07-03T17:33:26;6.40;;;4.40;;
47483;SDS011;54076;50.322;18.650;2022-07-03T17:38:29;6.40;;;4.30;;
47483;SDS011;54076;50.322;18.650;2022-07-03T17:43:33;8.30;;;6.30;;
47483;SDS011;54076;50.322;18.650;2022-07-03T17:48:38;7.00;;;4.40;;
47483;SDS011;54076;50.322;18.650;2022-07-03T17:53:42;6.30;;;4.30;;
47483;SDS011;54076;50.322;18.650;2022-07-03T17:58:46;6.60;;;4.40;;
47483;SDS011;54076;50.322;18.650;2022-07-03T18:03:48;9.10;;;4.80;;
47483;SDS011;54076;50.322;18.650;2022-07-03T18:09:06;7.30;;;4.80;;
47483;SDS011;54076;50.322;18.650;2022-07-03T18:19:27;7.40;;;4.80;;
47483;SDS011;54076;50.322;18.650;2022-07-03T18:24:35;9.00;;;5.10;;
47483;SDS011;54076;50.322;18.650;2022-07-03T18:29:38;7.10;;;5.10;;
47483;SDS011;54076;50.322;18.650;2022-07-03T18:34:47;8.10;;;5.10;;
47483;SDS011;54076;50.322;18.650;2022-07-03T18:39:50;7.40;;;5.00;;
47483;SDS011;54076;50.322;18.650;2022-07-03T18:44:51;8.00;;;5.50;;
47483;SDS011;54076;50.322;18.650;2022-07-03T18:49:53;7.70;;;5.30;;
47483;SDS011;54076;50.322;18.650;2022-07-03T18:56:19;7.70;;;5.20;;
47483;SDS011;54076;50.322;18.650;2022-07-03T19:00:52;7.90;;;5.50;;
47483;SDS011;54076;50.322;18.650;2022-07-03T19:06:08;9.70;;;5.70;;
47483;SDS011;54076;50.322;18.650;2022-07-03T19:11:20;10.50;;;6.20;;
47483;SDS011;54076;50.322;18.650;2022-07-03T19:16:25;8.10;;;5.60;;
47483;SDS011;54076;50.322;18.650;2022-07-03T19:21:27;9.60;;;6.00;;
47483;SDS011;54076;50.322;18.650;2022-07-03T19:26:28;8.50;;;6.00;;
47483;SDS011;54076;50.322;18.650;2022-07-03T19:31:29;9.00;;;5.90;;
47483;SDS011;54076;50.322;18.650;2022-07-03T19:36:31;8.80;;;5.90;;
47483;SDS011;54076;50.322;18.650;2022-07-03T19:41:32;9.30;;;5.90;;
47483;SDS011;54076;50.322;18.650;2022-07-03T19:46:33;8.60;;;5.50;;
47483;SDS011;54076;50.322;18.650;2022-07-03T19:51:34;9.00;;;6.00;;
47483;SDS011;54076;50.322;18.650;2022-07-03T19:56:36;7.40;;;5.70;;
47483;SDS011;54076;50.322;18.650;2022-07-03T20:01:37;8.30;;;5.90;;
47483;SDS011;54076;50.322;18.650;2022-07-03T20:06:38;8.00;;;5.80;;
47483;SDS011;54076;50.322;18.650;2022-07-03T20:11:39;9.00;;;6.10;;
47483;SDS011;54076;50.322;18.650;2022-07-03T20:16:40;9.70;;;6.00;;
47483;SDS011;54076;50.322;18.650;2022-07-03T20:21:41;8.90;;;5.90;;
47483;SDS011;54076;50.322;18.650;2022-07-03T20:26:43;10.30;;;6.20;;
47483;SDS011;54076;50.322;18.650;2022-07-03T20:31:51;11.00;;;5.50;;
47483;SDS011;54076;50.322;18.650;2022-07-03T20:36:53;9.90;;;6.00;;
47483;SDS011;54076;50.322;18.650;2022-07-03T20:41:56;9.90;;;6.70;;
47483;SDS011;54076;50.322;18.650;2022-07-03T20:46:59;9.00;;;6.40;;
47483;SDS011;54076;50.322;18.650;2022-07-03T20:52:02;8.60;;;6.40;;
47483;SDS011;54076;50.322;18.650;2022-07-03T20:57:04;8.10;;;5.90;;
47483;SDS011;54076;50.322;18.650;2022-07-03T21:02:07;10.40;;;6.00;;
47483;SDS011;54076;50.322;18.650;2022-07-03T21:07:09;8.00;;;5.90;;
47483;SDS011;54076;50.322;18.650;2022-07-03T21:12:10;9.20;;;6.00;;
47483;SDS011;54076;50.322;18.650;2022-07-03T21:17:11;10.80;;;6.10;;
47483;SDS011;54076;50.322;18.650;2022-07-03T21:22:13;9.20;;;6.70;;
47483;SDS011;54076;50.322;18.650;2022-07-03T21:27:16;9.50;;;6.60;;
47483;SDS011;54076;50.322;18.650;2022-07-03T21:32:17;9.60;;;6.50;;
47483;SDS011;54076;50.322;18.650;2022-07-03T21:37:18;10.00;;;6.60;;
47483;SDS011;54076;50.322;18.650;2022-07-03T21:42:19;10.90;;;7.00;;
47483;SDS011;54076;50.322;18.650;2022-07-03T21:47:20;10.70;;;6.30;;
47483;SDS011;54076;50.322;18.650;2022-07-03T21:52:21;10.30;;;6.10;;
47483;SDS011;54076;50.322;18.650;2022-07-03T21:57:22;9.70;;;6.40;;
47483;SDS011;54076;50.322;18.650;2022-07-03T22:02:23;10.50;;;6.80;;
47483;SDS011;54076;50.322;18.650;2022-07-03T22:07:24;11.80;;;6.60;;
47483;SDS011;54076;50.322;18.650;2022-07-03T22:12:25;10.90;;;6.30;;
47483;SDS011;54076;50.322;18.650;2022-07-03T22:17:37;10.90;;;6.70;;
47483;SDS011;54076;50.322;18.650;2022-07-03T22:22:40;9.20;;;6.20;;
47483;SDS011;54076;50.322;18.650;2022-07-03T22:27:42;11.20;;;7.00;;
47483;SDS011;54076;50.322;18.650;2022-07-03T22:32:44;10.90;;;6.70;;
47483;SDS011;54076;50.322;18.650;2022-07-03T22:37:46;10.80;;;6.70;;
47483;SDS011;54076;50.322;18.650;2022-07-03T22:42:52;10.60;;;7.00;;
47483;SDS011;54076;50.322;18.650;2022-07-03T22:47:54;11.10;;;6.80;;
47483;SDS011;54076;50.322;18.650;2022-07-03T22:52:55;10.60;;;7.00;;
47483;SDS011;54076;50.322;18.650;2022-07-03T22:57:56;11.90;;;7.30;;
47483;SDS011;54076;50.322;18.650;2022-07-03T23:02:57;12.00;;;7.70;;
47483;SDS011;54076;50.322;18.650;2022-07-03T23:07:58;12.10;;;7.60;;
47483;SDS011;54076;50.322;18.650;2022-07-03T23:12:59;11.10;;;7.10;;
47483;SDS011;54076;50.322;18.650;2022-07-03T23:18:00;10.10;;;6.80;;
47483;SDS011;54076;50.322;18.650;2022-07-03T23:23:00;11.80;;;6.90;;
47483;SDS011;54076;50.322;18.650;2022-07-03T23:28:01;14.40;;;7.20;;
47483;SDS011;54076;50.322;18.650;2022-07-03T23:33:03;12.90;;;6.90;;
47483;SDS011;54076;50.322;18.650;2022-07-03T23:38:04;13.40;;;7.30;;
47483;SDS011;54076;50.322;18.650;2022-07-03T23:43:05;10.70;;;7.20;;
47483;SDS011;54076;50.322;18.650;2022-07-03T23:48:06;10.50;;;6.70;;
47483;SDS011;54076;50.322;18.650;2022-07-03T23:53:07;13.50;;;7.10;;
47483;SDS011;54076;50.322;18.650;2022-07-03T23:58:09;10.90;;;6.70;;
